Time;durP1;ratioP1;P1;durP2;ratioP2;P2;SDS_P1;SDS_P2;PMS_P1;PMS_P2;Temp;Humidity;BMP_temperature;BMP_pressure;BME280_temperature;BME280_humidity;BME280_pressure;Samples;Min_cycle;Max_cycle;Signal;HPM_P1;HPM_P2
2024/03/12 00:01:40;;;;;;;6.17;2.90;;;8.50;99.90;;;9.13;100.00;97520.53;4969276;28;20227;-82
2024/03/12 00:04:09;;;;;;;4.37;3.10;;;8.40;99.90;;;9.10;100.00;97524.31;4987606;28;21155;-83
2024/03/12 00:06:42;;;;;;;5.60;2.90;;;8.30;99.90;;;9.05;100.00;97529.31;4987203;28;20506;-83
2024/03/12 00:09:10;;;;;;;6.30;3.10;;;8.40;99.90;;;9.01;100.00;97534.09;4987258;28;20463;-83
2024/03/12 00:11:39;;;;;;;6.35;3.45;;;8.50;99.90;;;9.02;100.00;97538.28;4987401;28;20483;-82
2024/03/12 00:14:08;;;;;;;6.60;2.70;;;8.40;99.90;;;9.01;100.00;97541.91;4987120;28;20282;-83
2024/03/12 00:16:40;;;;;;;11.23;3.20;;;8.40;99.90;;;9.00;100.00;97539.47;4985910;28;20469;-83
2024/03/12 00:19:10;;;;;;;7.40;3.27;;;8.50;99.90;;;8.99;100.00;97536.06;4988053;28;20518;-83
2024/03/12 00:21:38;;;;;;;7.83;3.97;;;8.40;99.90;;;8.94;100.00;97535.03;4986354;28;20527;-83
2024/03/12 00:24:09;;;;;;;5.10;3.23;;;8.40;99.90;;;8.93;100.00;97544.66;4988086;28;20469;-83
2024/03/12 00:26:38;;;;;;;4.00;2.67;;;8.30;99.90;;;8.96;100.00;97548.66;4988244;28;20838;-82
2024/03/12 00:29:09;;;;;;;5.43;3.40;;;8.30;99.90;;;8.98;100.00;97551.91;4987272;28;20468;-83
2024/03/12 00:31:38;;;;;;;5.67;3.20;;;8.30;99.90;;;8.99;100.00;97553.50;4987894;28;20471;-83
2024/03/12 00:34:10;;;;;;;5.03;3.25;;;8.30;99.90;;;9.02;100.00;97560.97;4989413;28;20494;-83
2024/03/12 00:36:41;;;;;;;5.63;3.60;;;8.30;99.90;;;9.02;100.00;97558.38;4989492;28;20232;-83
2024/03/12 00:39:11;;;;;;;3.97;3.00;;;8.30;99.90;;;9.04;100.00;97561.59;4989029;28;20469;-83
2024/03/12 00:41:39;;;;;;;5.63;2.93;;;8.30;99.90;;;9.00;100.00;97570.78;4988094;28;20478;-83
2024/03/12 00:44:09;;;;;;;6.27;3.63;;;8.40;99.90;;;9.00;100.00;97573.38;4983935;28;20970;-83
2024/03/12 00:46:38;;;;;;;4.55;3.13;;;8.30;99.90;;;8.94;100.00;97567.13;4983775;28;20492;-83
2024/03/12 00:49:07;;;;;;;4.97;3.38;;;8.40;99.90;;;8.97;100.00;97571.16;4984124;28;20239;-83
2024/03/12 00:51:35;;;;;;;6.27;3.43;;;8.40;99.90;;;9.00;100.00;97576.00;4983105;28;20242;-84
2024/03/12 00:54:05;;;;;;;6.03;3.40;;;8.40;99.90;;;9.00;100.00;97568.97;4984496;28;20486;-84
2024/03/12 00:56:33;;;;;;;5.25;2.88;;;8.30;99.90;;;8.96;100.00;97577.34;4983827;28;20466;-83
2024/03/12 00:59:02;;;;;;;5.63;3.47;;;8.20;99.90;;;8.98;100.00;97583.22;4982340;28;20212;-82
2024/03/12 01:01:32;;;;;;;4.97;3.70;;;8.20;99.90;;;8.98;100.00;97585.81;4984043;28;20494;-82
2024/03/12 01:04:00;;;;;;;6.50;4.00;;;8.10;99.90;;;8.98;100.00;97583.22;4983436;28;21042;-83
2024/03/12 01:06:29;;;;;;;7.97;3.70;;;8.20;99.90;;;9.00;100.00;97582.00;4984112;28;20464;-83
2024/03/12 01:08:58;;;;;;;4.70;3.60;;;8.20;99.90;;;8.98;100.00;97586.63;4983802;28;20469;-83
2024/03/12 01:11:26;;;;;;;5.90;3.70;;;8.10;99.90;;;8.98;100.00;97583.22;4984954;28;20219;-83
2024/03/12 01:13:55;;;;;;;4.70;3.23;;;8.10;99.90;;;8.91;100.00;97584.94;4983332;28;21017;-83
2024/03/12 01:16:23;;;;;;;5.33;3.57;;;8.00;99.90;;;8.93;100.00;97578.53;4983812;28;20468;-83
2024/03/12 01:18:53;;;;;;;7.07;4.40;;;8.10;99.90;;;8.90;100.00;97580.72;4982959;28;20552;-83
2024/03/12 01:21:22;;;;;;;5.83;3.13;;;8.10;99.90;;;8.85;100.00;97585.72;4985167;28;20461;-83
2024/03/12 01:23:50;;;;;;;6.20;4.03;;;8.00;99.90;;;8.87;100.00;97581.91;4983805;28;20511;-83
2024/03/12 01:26:19;;;;;;;6.37;3.97;;;8.10;99.90;;;8.87;100.00;97581.09;4983541;28;20352;-83
2024/03/12 01:28:47;;;;;;;7.40;4.03;;;8.10;99.90;;;8.89;100.00;97585.13;4983150;28;20857;-83
2024/03/12 01:31:16;;;;;;;6.20;3.90;;;8.10;99.90;;;8.86;100.00;97589.91;4983113;28;20475;-83
2024/03/12 01:33:44;;;;;;;8.37;4.43;;;8.00;99.90;;;8.84;100.00;97587.50;4983734;28;20460;-83
2024/03/12 01:36:20;;;;;;;7.13;4.10;;;8.00;99.90;;;8.83;100.00;97582.47;4983386;28;20512;-82
2024/03/12 01:38:54;;;;;;;7.10;4.47;;;8.00;99.90;;;8.82;100.00;97581.66;4983373;28;20477;-83
2024/03/12 01:41:23;;;;;;;9.90;4.87;;;8.00;99.90;;;8.81;100.00;97587.06;4977488;28;20470;-83
2024/03/12 01:43:59;;;;;;;7.93;4.07;;;8.00;99.90;;;8.77;100.00;97585.81;4979766;28;20469;-82
2024/03/12 01:46:29;;;;;;;5.37;4.23;;;8.10;99.90;;;8.78;100.00;97585.63;4982055;28;21196;-83
2024/03/12 01:48:58;;;;;;;6.20;3.90;;;8.00;99.90;;;8.77;100.00;97593.66;4980700;28;20509;-83
2024/03/12 01:51:30;;;;;;;5.78;3.88;;;7.90;99.90;;;8.78;100.00;97592.66;4984490;28;20469;-83
2024/03/12 01:53:59;;;;;;;5.23;3.83;;;7.90;99.90;;;8.79;100.00;97595.06;4981623;28;20223;-83
2024/03/12 01:56:27;;;;;;;7.17;3.90;;;7.90;99.90;;;8.79;100.00;97594.25;4983060;28;20613;-82
2024/03/12 01:58:57;;;;;;;6.28;3.63;;;7.90;99.90;;;8.78;100.00;97598.66;4982911;28;20462;-83
2024/03/12 02:01:26;;;;;;;7.37;4.50;;;7.90;99.90;;;8.77;100.00;97591.84;4983184;28;20200;-83
2024/03/12 02:03:56;;;;;;;6.10;3.90;;;8.00;99.90;;;8.75;100.00;97591.22;4981923;28;20844;-83
2024/03/12 02:06:25;;;;;;;8.30;5.00;;;7.90;99.90;;;8.75;100.00;97593.00;4983008;28;20539;-83
2024/03/12 02:08:55;;;;;;;6.40;4.45;;;7.90;99.90;;;8.74;100.00;97594.84;4981244;28;20533;-83
2024/03/12 02:11:24;;;;;;;6.47;3.97;;;7.90;99.90;;;8.73;100.00;97590.59;4981924;28;20795;-83
2024/03/12 02:13:52;;;;;;;5.73;3.87;;;7.90;99.90;;;8.74;100.00;97594.84;4983079;28;20474;-83
2024/03/12 02:16:21;;;;;;;12.60;3.40;;;7.90;99.90;;;8.73;100.00;97590.59;4983780;28;20988;-83
2024/03/12 02:18:51;;;;;;;6.20;3.70;;;7.80;99.90;;;8.73;100.00;97584.59;4986324;28;20472;-83
2024/03/12 02:21:20;;;;;;;7.07;4.00;;;7.80;99.90;;;8.74;100.00;97586.19;4987130;28;20957;-83
2024/03/12 02:23:49;;;;;;;6.83;3.57;;;7.90;99.90;;;8.71;100.00;97592.56;4989459;28;20463;-83
2024/03/12 02:26:18;;;;;;;6.83;4.07;;;7.80;99.90;;;8.71;100.00;97591.78;4988506;28;20466;-83
2024/03/12 02:28:47;;;;;;;6.10;3.70;;;7.80;99.90;;;8.75;100.00;97590.41;4986368;28;20480;-83
2024/03/12 02:31:15;;;;;;;6.33;4.10;;;7.90;99.90;;;8.69;100.00;97591.97;4986828;28;20476;-83
2024/03/12 02:33:44;;;;;;;4.90;3.43;;;7.90;99.90;;;8.68;100.00;97600.75;4988512;28;21023;-83
2024/03/12 02:36:13;;;;;;;7.90;3.40;;;7.90;99.90;;;8.68;100.00;97599.97;4984398;28;20635;-83
2024/03/12 02:38:41;;;;;;;6.53;3.70;;;7.80;99.90;;;8.68;100.00;97597.38;4982106;28;20457;-82
2024/03/12 02:41:11;;;;;;;3.90;2.93;;;7.90;99.90;;;8.67;100.00;97595.75;4981899;28;20478;-83
2024/03/12 02:43:41;;;;;;;5.37;3.90;;;7.90;99.90;;;8.60;100.00;97595.69;4981612;28;20880;-82
2024/03/12 02:46:10;;;;;;;5.00;3.27;;;7.80;99.90;;;8.65;100.00;97601.13;4982289;28;20918;-83
2024/03/12 02:48:41;;;;;;;5.60;2.93;;;7.80;99.90;;;8.57;100.00;97604.66;4981694;28;20476;-83
2024/03/12 02:51:10;;;;;;;5.77;3.80;;;7.80;99.90;;;8.64;100.00;97599.56;4981238;28;20567;-83
2024/03/12 02:53:40;;;;;;;5.37;3.50;;;7.90;99.90;;;8.63;100.00;97597.94;4983104;28;20968;-82
2024/03/12 02:56:09;;;;;;;5.37;3.20;;;7.80;99.90;;;8.67;100.00;97600.97;4981516;28;20509;-83
2024/03/12 02:58:38;;;;;;;5.00;3.53;;;7.80;99.90;;;8.66;100.00;97599.34;4981000;28;20467;-82
2024/03/12 03:01:07;;;;;;;4.80;3.43;;;7.80;99.90;;;8.54;100.00;97599.84;4980447;28;21256;-83
2024/03/12 03:03:38;;;;;;;6.20;3.70;;;7.90;99.90;;;8.58;100.00;97598.47;4980849;28;20461;-83
2024/03/12 03:06:07;;;;;;;5.20;4.10;;;7.90;99.90;;;8.57;100.00;97594.25;4981868;28;20463;-83
2024/03/12 03:08:37;;;;;;;6.50;3.93;;;8.00;99.90;;;8.55;100.00;97593.63;4983209;28;20461;-83
2024/03/12 03:11:06;;;;;;;5.07;3.88;;;7.90;99.90;;;8.57;100.00;97596.06;4981199;28;21037;-83
2024/03/12 03:13:36;;;;;;;5.07;3.70;;;7.90;99.90;;;8.57;100.00;97596.84;4982065;28;20597;-82
2024/03/12 03:16:04;;;;;;;5.63;3.87;;;8.00;99.90;;;8.57;100.00;97591.63;4982157;28;20498;-83
2024/03/12 03:18:34;;;;;;;4.40;3.33;;;7.90;99.90;;;8.61;100.00;97601.72;4981068;28;20488;-82
2024/03/12 03:21:03;;;;;;;6.73;3.80;;;7.90;99.90;;;8.60;100.00;97606.13;4980717;28;20940;-83
2024/03/12 03:23:31;;;;;;;4.00;3.20;;;7.90;99.90;;;8.59;100.00;97602.69;4982048;28;20479;-83
2024/03/12 03:26:00;;;;;;;6.63;3.23;;;7.90;99.90;;;8.55;100.00;97606.66;4983852;28;20471;-83
2024/03/12 03:28:28;;;;;;;4.00;3.23;;;8.00;99.90;;;8.58;100.00;97605.47;4982969;28;20900;-83
2024/03/12 03:30:59;;;;;;;5.13;3.17;;;7.90;99.90;;;8.56;100.00;97608.28;4982505;28;20962;-83
2024/03/12 03:33:28;;;;;;;6.93;4.10;;;7.90;99.90;;;8.55;100.00;97606.66;4980560;28;20467;-83
2024/03/12 03:35:57;;;;;;;6.20;3.73;;;7.90;99.90;;;8.56;100.00;97603.06;4981684;28;20601;-83
2024/03/12 03:38:27;;;;;;;5.70;3.73;;;7.90;99.90;;;8.55;100.00;97603.25;4980368;28;20468;-83
2024/03/12 03:40:56;;;;;;;4.77;3.57;;;7.80;99.90;;;8.55;100.00;97606.66;4980364;28;20736;-83
2024/03/12 03:43:24;;;;;;;5.93;3.93;;;7.80;99.90;;;8.52;100.00;97609.66;4980980;28;20469;-83
2024/03/12 03:45:53;;;;;;;8.20;4.80;;;7.90;99.90;;;8.54;100.00;97612.84;4980832;28;20499;-83
2024/03/12 03:48:23;;;;;;;5.40;3.77;;;7.90;99.90;;;8.56;100.00;97610.91;4981217;28;20561;-82
2024/03/12 03:50:52;;;;;;;8.37;4.17;;;7.90;99.90;;;8.50;100.00;97616.81;4982780;28;20564;-83
2024/03/12 03:53:20;;;;;;;6.95;3.75;;;7.80;99.90;;;8.51;100.00;97620.25;4981533;28;20521;-83
2024/03/12 03:55:49;;;;;;;7.00;4.30;;;7.80;99.90;;;8.53;100.00;97616.47;4981912;28;20267;-83
2024/03/12 03:58:18;;;;;;;7.47;4.40;;;7.80;99.90;;;8.56;100.00;97621.31;4983748;28;20467;-83
2024/03/12 04:00:46;;;;;;;9.20;4.83;;;7.80;99.90;;;8.52;100.00;97635.69;4984652;28;21006;-83
2024/03/12 04:03:15;;;;;;;5.10;4.10;;;7.90;99.90;;;8.52;100.00;97646.13;4985535;28;20917;-83
2024/03/12 04:05:45;;;;;;;6.50;4.40;;;7.80;99.90;;;8.50;100.00;97647.31;4983326;28;20478;-84
2024/03/12 04:08:15;;;;;;;11.87;6.23;;;7.70;99.90;;;8.46;100.00;97641.66;4984713;28;20465;-83
2024/03/12 04:10:44;;;;;;;7.70;4.90;;;7.80;99.90;;;8.46;100.00;97648.66;4979916;28;20467;-82
2024/03/12 04:13:14;;;;;;;7.47;4.73;;;7.70;99.90;;;8.47;100.00;97648.47;4983701;28;20527;-83
2024/03/12 04:15:43;;;;;;;7.90;4.73;;;7.80;99.90;;;8.50;100.00;97653.31;4980736;28;21087;-84
2024/03/12 04:18:13;;;;;;;7.30;4.87;;;7.90;99.90;;;8.48;100.00;97646.66;4978443;28;20980;-81
2024/03/12 04:20:41;;;;;;;6.63;4.37;;;7.90;99.90;;;8.47;100.00;97648.47;4982681;28;20460;-83
2024/03/12 04:23:11;;;;;;;7.50;4.63;;;7.80;99.90;;;8.51;100.00;97648.91;4980984;28;20868;-82
2024/03/12 04:25:40;;;;;;;6.87;4.47;;;7.80;99.90;;;8.52;100.00;97646.13;4987399;28;20257;-82
2024/03/12 04:28:14;;;;;;;5.93;4.63;;;7.70;99.90;;;8.55;100.00;97650.16;4987786;28;20464;-82
2024/03/12 04:30:43;;;;;;;6.13;4.30;;;7.90;99.90;;;8.56;100.00;97654.38;4987126;28;20979;-89
2024/03/12 04:33:12;;;;;;;11.33;7.40;;;7.80;99.90;;;8.57;100.00;97654.19;4986601;28;20562;-83
2024/03/12 04:35:42;;;;;;;6.27;4.47;;;7.80;99.90;;;8.61;100.00;97665.03;4985385;28;20483;-84
2024/03/12 04:38:14;;;;;;;16.77;4.60;;;7.80;99.90;;;8.62;100.00;97673.69;4981594;28;20482;-85
2024/03/12 04:40:47;;;;;;;9.77;5.53;;;7.80;99.90;;;8.64;100.00;97664.69;4984645;28;20222;-85
2024/03/12 04:43:17;;;;;;;7.57;4.60;;;7.90;99.90;;;8.64;100.00;97664.69;4981659;28;20974;-77
2024/03/12 04:45:46;;;;;;;9.47;5.07;;;7.90;99.90;;;8.58;100.00;97668.84;4985374;28;20534;-76
2024/03/12 04:48:15;;;;;;;6.28;5.00;;;7.90;99.90;;;8.61;100.00;97674.69;4984287;28;20494;-79
2024/03/12 04:50:43;;;;;;;9.80;5.20;;;7.90;99.90;;;8.63;100.00;97680.50;4984434;28;20245;-79
2024/03/12 04:53:13;;;;;;;8.87;5.47;;;7.90;99.90;;;8.63;100.00;97680.50;4988355;28;20470;-78
2024/03/12 04:55:42;;;;;;;9.17;4.87;;;7.90;99.90;;;8.63;100.00;97678.72;4987828;28;20493;-79
2024/03/12 04:58:10;;;;;;;7.47;4.50;;;7.90;99.90;;;8.65;100.00;97674.13;4986592;28;20505;-78
2024/03/12 05:00:39;;;;;;;11.50;5.53;;;7.90;99.90;;;8.67;100.00;97689.59;4985461;28;20471;-79
2024/03/12 05:03:07;;;;;;;7.93;5.27;;;7.80;99.90;;;8.65;100.00;97687.16;4982920;28;20547;-79
2024/03/12 05:05:35;;;;;;;8.67;5.90;;;7.80;99.90;;;8.63;100.00;97693.53;4983172;28;20458;-79
2024/03/12 05:08:05;;;;;;;10.30;6.47;;;7.80;99.90;;;8.63;100.00;97690.94;4982120;28;20474;-79
2024/03/12 05:10:36;;;;;;;10.33;6.03;;;7.90;99.90;;;8.64;100.00;97698.59;4982349;28;20981;-79
2024/03/12 05:13:04;;;;;;;10.03;5.33;;;7.80;99.90;;;8.64;100.00;97700.38;4982067;28;20470;-79
2024/03/12 05:15:33;;;;;;;13.57;7.07;;;7.90;99.90;;;8.67;100.00;97706.03;4981426;28;20479;-79
2024/03/12 05:18:01;;;;;;;11.93;6.10;;;7.90;99.90;;;8.68;100.00;97704.25;4980893;28;20512;-79
2024/03/12 05:20:33;;;;;;;12.00;7.40;;;7.90;99.90;;;8.69;100.00;97713.66;4982510;28;20238;-79
2024/03/12 05:23:03;;;;;;;15.23;8.20;;;8.00;99.90;;;8.69;100.00;97718.88;4981432;28;20609;-79
2024/03/12 05:25:39;;;;;;;12.70;7.73;;;7.90;99.90;;;8.68;100.00;97720.66;4982689;28;20490;-79
2024/03/12 05:28:10;;;;;;;19.95;9.63;;;8.00;99.90;;;8.70;100.00;97725.69;4985086;28;20474;-79
2024/03/12 05:30:40;;;;;;;17.70;8.67;;;8.10;99.90;;;8.67;100.00;97733.88;4985437;28;20209;-78
2024/03/12 05:33:14;;;;;;;18.33;8.68;;;7.90;99.90;;;8.69;100.00;97735.31;4986151;28;20468;-79
2024/03/12 05:35:47;;;;;;;12.70;7.40;;;7.90;99.90;;;8.70;100.00;97736.94;4984543;28;20224;-79
2024/03/12 05:38:32;;;;;;;11.95;7.53;;;7.90;99.90;;;8.72;100.00;97741.94;4983403;28;20478;-79
2024/03/12 05:41:25;;;;;;;16.37;9.23;;;7.90;99.90;;;8.72;100.00;97734.94;4982229;28;20580;-79
2024/03/12 05:49:27;;;;;;;19.90;9.80;;;7.90;99.90;;;8.70;100.00;97749.97;4981020;28;20471;-79
2024/03/12 05:51:55;;;;;;;18.57;10.63;;;7.90;99.90;;;8.71;100.00;97750.78;4978052;28;20489;-79
2024/03/12 05:54:24;;;;;;;19.60;10.17;;;7.90;99.90;;;8.70;100.00;97756.97;4978731;28;20595;-80
2024/03/12 05:56:52;;;;;;;18.60;9.80;;;7.90;99.90;;;8.71;100.00;97756.78;4974778;28;21025;-79
2024/03/12 05:59:22;;;;;;;22.27;10.10;;;7.90;99.90;;;8.71;100.00;97761.22;4975978;28;20464;-83
2024/03/12 06:01:51;;;;;;;16.70;10.00;;;7.90;99.90;;;8.70;100.00;97767.41;4975192;28;20466;-79
2024/03/12 06:04:19;;;;;;;18.35;10.10;;;7.80;99.90;;;8.73;100.00;97767.03;4975850;28;20473;-79
2024/03/12 06:06:48;;;;;;;18.37;10.47;;;7.90;99.90;;;8.74;100.00;97768.66;4975723;28;20217;-79
2024/03/12 06:09:22;;;;;;;19.23;9.57;;;7.90;99.90;;;8.72;100.00;97768.84;4978256;28;20781;-79
2024/03/12 06:11:51;;;;;;;23.13;10.67;;;7.90;99.90;;;8.71;100.00;97774.25;4976980;28;21113;-79
2024/03/12 06:14:19;;;;;;;15.20;9.00;;;7.90;99.90;;;8.68;100.00;97782.44;4976832;28;20612;-78
2024/03/12 06:16:49;;;;;;;17.85;10.57;;;7.90;99.90;;;8.69;100.00;97777.03;4976415;28;20864;-79
2024/03/12 06:19:17;;;;;;;20.40;10.47;;;7.90;99.90;;;8.70;100.00;97781.25;4977097;28;20219;-78
2024/03/12 06:21:46;;;;;;;21.83;10.97;;;7.80;99.90;;;8.70;100.00;97788.25;4975243;28;20460;-79
2024/03/12 06:24:16;;;;;;;17.80;10.00;;;7.80;99.90;;;8.68;100.00;97782.44;4975250;28;21081;-78
2024/03/12 06:26:45;;;;;;;20.93;9.50;;;7.90;99.90;;;8.69;100.00;97791.84;4976897;28;20461;-80
2024/03/12 06:29:14;;;;;;;18.90;10.50;;;7.90;99.90;;;8.70;100.00;97793.47;4974692;28;21119;-80
2024/03/12 06:31:42;;;;;;;21.23;10.30;;;7.70;99.90;;;8.70;100.00;97794.28;4974142;28;20475;-79
2024/03/12 06:34:12;;;;;;;19.13;9.30;;;7.90;99.90;;;8.70;100.00;97807.31;4977146;28;20552;-79
2024/03/12 06:36:41;;;;;;;16.63;9.43;;;7.90;99.90;;;8.69;100.00;97808.31;4976901;28;20796;-79
2024/03/12 06:39:13;;;;;;;12.63;7.97;;;7.90;99.90;;;8.66;100.00;97803.44;4975741;28;20501;-79
2024/03/12 06:41:42;;;;;;;14.13;7.80;;;7.90;99.90;;;8.68;100.00;97804.06;4978475;28;20902;-84
2024/03/12 06:44:15;;;;;;;15.40;8.63;;;7.80;99.90;;;8.70;100.00;97814.31;4977280;28;20467;-80
2024/03/12 06:46:44;;;;;;;18.52;8.00;;;7.90;99.90;;;8.72;100.00;97817.53;4980732;28;20456;-79
2024/03/12 06:49:14;;;;;;;15.53;7.70;;;7.90;99.90;;;8.69;100.00;97815.31;4980002;28;20208;-80
2024/03/12 06:51:47;;;;;;;14.60;8.15;;;7.90;99.90;;;8.73;100.00;97820.00;4979628;28;20540;-80
2024/03/12 06:54:15;;;;;;;18.10;8.15;;;7.90;99.90;;;8.73;100.00;97829.59;4981156;28;20262;-80
2024/03/12 06:56:46;;;;;;;16.43;8.43;;;7.90;99.90;;;8.74;100.00;97833.84;4979802;28;20200;-79
2024/03/12 06:59:15;;;;;;;16.67;7.90;;;7.90;99.90;;;8.78;100.00;97838.47;4977736;28;20537;-79
2024/03/12 07:01:45;;;;;;;12.53;7.53;;;7.90;99.90;;;8.81;100.00;97839.94;4975938;28;20453;-79
2024/03/12 07:04:15;;;;;;;11.23;6.87;;;7.90;99.90;;;8.78;100.00;97837.69;4977118;28;21132;-79
2024/03/12 07:06:45;;;;;;;17.53;8.60;;;8.00;99.90;;;8.78;100.00;97841.09;4973565;28;20889;-79
2024/03/12 07:09:23;;;;;;;16.90;8.00;;;8.00;99.90;;;8.78;100.00;97845.53;4977826;28;20494;-79
2024/03/12 07:11:52;;;;;;;11.40;6.80;;;8.10;99.90;;;8.79;100.00;97847.13;4976629;28;20212;-79
2024/03/12 07:14:27;;;;;;;13.60;7.30;;;8.00;99.90;;;8.78;100.00;97850.75;4974406;28;20484;-79
2024/03/12 07:16:56;;;;;;;13.17;7.67;;;7.90;99.90;;;8.79;100.00;97854.94;4975213;28;20602;-79
2024/03/12 07:19:26;;;;;;;13.00;7.07;;;7.90;99.90;;;8.79;100.00;97854.94;4975703;28;20511;-79
2024/03/12 07:21:55;;;;;;;14.87;7.07;;;7.90;99.90;;;8.79;100.00;97854.94;4973631;28;20486;-79
2024/03/12 07:24:24;;;;;;;14.77;7.05;;;8.00;99.90;;;8.82;100.00;97851.97;4975503;28;20699;-79
2024/03/12 07:26:53;;;;;;;11.13;5.73;;;8.00;99.90;;;8.82;100.00;97860.59;4974595;28;20223;-87
2024/03/12 07:29:23;;;;;;;26.77;14.10;;;8.00;99.90;;;8.78;100.00;97869.00;4975161;28;20956;-80
2024/03/12 07:31:53;;;;;;;17.13;9.60;;;7.90;99.90;;;8.81;100.00;97868.63;4979298;28;20466;-80
2024/03/12 07:34:21;;;;;;;13.32;7.28;;;8.00;99.90;;;8.83;100.00;97872.66;4980048;28;20473;-79
2024/03/12 07:36:51;;;;;;;13.07;6.80;;;8.00;99.90;;;8.84;100.00;97876.09;4986957;28;20254;-78
2024/03/12 07:39:25;;;;;;;14.37;7.07;;;8.00;99.90;;;8.84;100.00;97870.88;4980077;28;20484;-77
2024/03/12 07:41:55;;;;;;;11.87;6.00;;;8.00;99.90;;;8.86;100.00;97879.31;4979350;28;20469;-77
2024/03/12 07:44:24;;;;;;;9.20;5.83;;;8.00;99.90;;;8.85;100.00;97882.91;4979442;28;20483;-77
2024/03/12 07:46:54;;;;;;;10.67;5.97;;;8.00;99.90;;;8.87;100.00;97880.94;4977503;28;20474;-77
2024/03/12 07:49:23;;;;;;;11.87;6.10;;;8.00;99.90;;;8.85;100.00;97880.31;4982884;28;20517;-78
2024/03/12 07:51:53;;;;;;;11.90;5.60;;;8.10;99.90;;;8.83;100.00;97887.50;4982312;28;20923;-77
2024/03/12 07:54:22;;;;;;;12.30;6.22;;;8.10;99.90;;;8.85;100.00;97890.75;4984678;28;20465;-77
2024/03/12 07:56:50;;;;;;;9.80;5.80;;;8.10;99.90;;;8.88;100.00;97887.78;4983749;28;20299;-77
2024/03/12 07:59:22;;;;;;;10.57;5.40;;;8.10;99.90;;;8.91;100.00;97900.44;4983182;28;20505;-77
2024/03/12 08:01:52;;;;;;;8.70;4.47;;;8.20;99.90;;;8.92;100.00;97902.06;4980869;28;20549;-77
2024/03/12 08:04:22;;;;;;;11.15;6.95;;;8.20;99.90;;;8.82;100.00;97902.31;4980996;28;20452;-76
2024/03/12 08:06:50;;;;;;;11.57;6.03;;;8.00;99.90;;;8.79;100.00;97909.69;4990303;28;20205;-76
2024/03/12 08:09:24;;;;;;;12.63;5.97;;;8.10;99.90;;;8.83;100.00;97908.34;4991063;28;20973;-76
2024/03/12 08:11:53;;;;;;;12.50;4.97;;;8.00;99.90;;;8.83;100.00;97910.94;4985022;28;20468;-75
2024/03/12 08:14:22;;;;;;;11.93;5.63;;;8.10;99.90;;;8.83;100.00;97918.78;4988521;28;20478;-76
2024/03/12 08:16:51;;;;;;;19.60;5.63;;;8.10;99.90;;;8.86;100.00;97923.63;4990048;28;20473;-76
2024/03/12 08:19:25;;;;;;;9.07;4.63;;;8.10;99.90;;;8.89;100.00;97916.25;4991828;28;20501;-75
2024/03/12 08:21:54;;;;;;;8.60;5.23;;;8.10;99.90;;;8.91;100.00;97922.13;4993158;28;20223;-76
2024/03/12 08:24:26;;;;;;;18.50;5.60;;;8.20;99.90;;;8.96;100.00;97924.16;4991175;28;20991;-76
2024/03/12 08:26:55;;;;;;;11.17;6.53;;;8.10;99.90;;;8.98;100.00;97930.03;4992221;28;20211;-76
2024/03/12 08:29:25;;;;;;;9.70;5.20;;;8.20;99.90;;;8.99;100.00;97921.19;4991483;28;20466;-76
2024/03/12 08:31:55;;;;;;;11.10;6.30;;;8.20;99.90;;;9.01;100.00;97925.28;4990549;28;20506;-76
2024/03/12 08:34:28;;;;;;;14.73;7.30;;;8.20;99.90;;;9.08;100.00;97920.13;4988320;28;21002;-78
2024/03/12 08:36:57;;;;;;;16.07;8.07;;;8.20;99.90;;;9.07;100.00;97929.75;4986105;28;20212;-76
2024/03/12 08:39:27;;;;;;;10.80;6.53;;;8.30;99.90;;;9.06;100.00;97935.13;4982667;28;20499;-76
2024/03/12 08:41:57;;;;;;;11.20;6.50;;;8.30;99.90;;;9.09;100.00;97932.19;4984995;28;20873;-76
2024/03/12 08:44:26;;;;;;;11.45;6.93;;;8.30;99.90;;;9.12;100.00;97939.66;4983343;28;20481;-77
2024/03/12 08:46:55;;;;;;;15.90;6.97;;;8.40;99.90;;;9.13;100.00;97941.25;4984508;28;20212;-76
2024/03/12 08:49:23;;;;;;;14.13;7.30;;;8.30;99.90;;;9.17;100.00;97952.13;4983105;28;20537;-76
2024/03/12 08:51:52;;;;;;;16.50;8.80;;;8.40;99.90;;;9.22;100.00;97950.63;4982622;28;20479;-82
2024/03/12 08:54:21;;;;;;;20.83;7.63;;;8.40;99.90;;;9.25;100.00;97954.66;4983388;28;20481;-76
2024/03/12 08:56:51;;;;;;;13.13;6.47;;;8.50;99.90;;;9.30;100.00;97966.16;4980492;28;20490;-76
2024/03/12 08:59:20;;;;;;;12.73;7.13;;;8.50;99.90;;;9.31;100.00;97961.75;4978659;28;20237;-75
2024/03/12 09:01:49;;;;;;;12.27;6.47;;;8.60;99.90;;;9.34;100.00;97962.22;4980444;28;20271;-76
2024/03/12 09:04:19;;;;;;;13.65;7.97;;;8.50;99.90;;;9.41;100.00;97963.09;4979272;28;21254;-76
2024/03/12 09:06:47;;;;;;;16.90;7.20;;;8.60;99.90;;;9.40;100.00;97969.34;4978836;28;20204;-76
2024/03/12 09:09:18;;;;;;;15.80;8.17;;;8.60;99.90;;;9.41;100.00;97975.34;4976263;28;20526;-76
2024/03/12 09:11:46;;;;;;;15.63;7.90;;;8.60;99.90;;;9.39;100.00;97978.16;4977117;28;20871;-76
2024/03/12 09:14:16;;;;;;;17.27;7.90;;;8.60;99.90;;;9.37;100.00;97977.50;4974898;28;20477;-78
2024/03/12 09:16:45;;;;;;;24.10;11.10;;;8.60;99.90;;;9.34;100.00;97985.69;4979057;28;20479;-75
2024/03/12 09:19:13;;;;;;;14.40;8.33;;;8.70;99.90;;;9.34;100.00;97982.28;4976901;28;20510;-76
2024/03/12 09:21:42;;;;;;;14.20;7.73;;;8.70;99.90;;;9.39;100.00;97985.16;4977156;28;20752;-75
2024/03/12 09:24:11;;;;;;;12.13;7.47;;;8.60;99.90;;;9.48;100.00;97997.13;4978122;28;20495;-76
2024/03/12 09:26:39;;;;;;;35.63;16.67;;;8.80;99.90;;;9.43;100.00;97995.06;4969757;28;20561;-78
2024/03/12 09:29:08;;;;;;;14.07;8.00;;;8.70;99.90;;;9.43;100.00;97997.69;4975826;28;21049;-76
2024/03/12 09:31:39;;;;;;;13.23;8.17;;;8.70;99.90;;;9.49;100.00;97996.13;4979635;28;20595;-76
2024/03/12 09:34:07;;;;;;;16.17;7.60;;;8.80;99.90;;;9.44;100.00;98004.50;4977620;28;20810;-76
2024/03/12 09:36:36;;;;;;;17.70;8.57;;;8.90;99.90;;;9.48;100.00;98003.16;4982611;28;20460;-77
2024/03/12 09:39:10;;;;;;;10.90;6.75;;;9.00;99.90;;;9.45;100.00;98008.72;4981535;28;20489;-77
2024/03/12 09:41:48;;;;;;;14.85;7.95;;;9.00;99.90;;;9.48;100.00;98013.59;4980685;28;20537;-77
2024/03/12 09:44:17;;;;;;;17.63;8.77;;;9.00;99.90;;;9.54;100.00;98019.91;4982882;28;20660;-77
2024/03/12 09:46:49;;;;;;;20.03;8.20;;;8.90;99.90;;;9.52;100.00;98016.66;4980736;28;20491;-77
2024/03/12 09:49:19;;;;;;;14.00;8.77;;;8.90;99.90;;;9.48;100.00;98020.59;4984253;28;20525;-77
2024/03/12 09:51:47;;;;;;;13.33;7.43;;;9.00;99.90;;;9.48;100.00;98024.03;4984955;28;20472;-77
2024/03/12 09:54:16;;;;;;;17.73;8.40;;;9.00;99.90;;;9.50;100.00;98027.28;4986049;28;20482;-77
2024/03/12 09:56:46;;;;;;;16.87;9.07;;;9.00;99.90;;;9.48;100.00;98034.47;4984438;28;20460;-77
2024/03/12 09:59:14;;;;;;;17.90;8.00;;;8.90;99.90;;;9.49;100.00;98030.06;4983332;28;20491;-77
2024/03/12 10:01:44;;;;;;;18.73;8.67;;;8.90;99.90;;;9.51;100.00;98034.09;4982274;28;20473;-77
2024/03/12 10:04:16;;;;;;;19.23;9.35;;;8.90;99.90;;;9.51;100.00;98034.09;4982068;28;20483;-77
2024/03/12 10:06:45;;;;;;;16.17;9.30;;;8.90;99.90;;;9.59;100.00;98026.19;4981272;28;20243;-77
2024/03/12 10:09:17;;;;;;;23.27;10.77;;;8.90;99.90;;;9.63;100.00;98031.06;4982660;28;20545;-77
2024/03/12 10:11:45;;;;;;;19.63;10.40;;;9.00;99.90;;;9.65;100.00;98024.66;4980836;28;20667;-77
2024/03/12 10:14:17;;;;;;;16.40;8.60;;;9.00;99.90;;;9.67;100.00;98037.53;4984539;28;20487;-77
2024/03/12 10:16:46;;;;;;;19.10;9.52;;;9.10;99.90;;;9.75;100.00;98029.59;4985585;28;20456;-77
2024/03/12 10:19:17;;;;;;;17.10;9.47;;;9.10;99.90;;;9.73;100.00;98032.41;4985391;28;20707;-76
2024/03/12 10:21:46;;;;;;;17.27;9.57;;;9.00;99.90;;;9.80;100.00;98028.06;4985625;28;20474;-77
2024/03/12 10:24:17;;;;;;;19.33;10.00;;;9.10;99.90;;;9.86;100.00;98026.50;4985553;28;20526;-77
2024/03/12 10:26:47;;;;;;;19.63;9.90;;;9.10;99.90;;;9.92;100.00;98029.22;4985954;28;20470;-76
2024/03/12 10:29:19;;;;;;;21.07;10.40;;;9.30;99.90;;;9.86;100.00;98027.31;4984766;28;20224;-77
2024/03/12 10:31:50;;;;;;;20.73;8.43;;;9.20;99.90;;;9.84;100.00;98038.94;4986264;28;20468;-77
2024/03/12 10:34:20;;;;;;;18.50;9.97;;;9.30;99.90;;;9.80;100.00;98032.47;4983441;28;20486;-77
2024/03/12 10:36:50;;;;;;;19.50;9.17;;;9.10;99.90;;;9.82;100.00;98038.34;4986181;28;20895;-77
2024/03/12 10:39:28;;;;;;;16.20;9.47;;;9.30;99.90;;;9.90;100.00;98041.63;4985024;28;20556;-77